Pagina principale
METAR-TAF:

METAR-TAF

Aeroporti :

Odiham, Inghilterra

latitudine: 51-14N, longitudine: 000-57W, altezza: 123 m

Osservazione

Il bollettino è stato emesso 1 ora e 15 minuti fa, alle 01:50 UTC
Vento 7 kt da sud-est
Temperature 6°C
Umidità 93%
Pressione 1021 hPa
Visibilità 10 km o più

METAR: EGVO 240150Z AUTO 13007KT 9999 BKN019/// 06/05 Q1021

Ora: 03:05 (03:05 UTC)


TAF: mancante

Osservazioni e previsioni meteorologiche di più di 4000 aeroporti (messaggi METAR e TAF).

Le stazioni disponibili sono rappresentate dai dischi gialli e rossi sulla carta.

Puntare il mouse per vedere il nome della stazione.

Clicca sopra per visualizzare le osservazioni e previsioni meteorologiche.

Per cambiare la mappa : fare clic sui pulsanti verdi con una croce nera per ingrandire, il pulsante verde con un trattino per diminuire, o sulla freccia verde per le mappe adiacenti.


METAR-TAF: